createdAt,value
2018-05-25T00:00:50.144Z,41.40
2018-05-25T00:01:55.114Z,41.40
2018-05-25T00:03:00.066Z,41.40
2018-05-25T00:04:05.004Z,41.40
2018-05-25T00:05:10.135Z,41.40
2018-05-25T00:06:14.961Z,41.40
2018-05-25T00:07:19.740Z,41.40
2018-05-25T00:08:24.602Z,41.40
2018-05-25T00:09:29.742Z,41.40
2018-05-25T00:10:34.708Z,41.40
2018-05-25T00:11:39.805Z,41.40
2018-05-25T00:12:44.465Z,41.50
2018-05-25T00:13:49.240Z,41.50
2018-05-25T00:14:54.119Z,41.50
2018-05-25T00:15:58.977Z,41.50
2018-05-25T00:17:03.730Z,41.50
2018-05-25T00:18:08.462Z,41.50
2018-05-25T00:19:13.210Z,41.50
2018-05-25T00:20:18.261Z,41.50
2018-05-25T00:21:23.198Z,41.50
2018-05-25T00:22:28.063Z,41.50
2018-05-25T00:23:32.917Z,42.20
2018-05-25T00:24:37.840Z,41.60
2018-05-25T00:25:42.946Z,41.60
2018-05-25T00:26:47.907Z,41.60
2018-05-25T00:27:52.634Z,41.60
2018-05-25T00:28:57.418Z,41.60
2018-05-25T00:30:02.586Z,41.60
2018-05-25T00:31:07.642Z,41.60
2018-05-25T00:32:12.621Z,41.60
2018-05-25T00:33:17.445Z,41.60
2018-05-25T00:34:22.434Z,41.60
2018-05-25T00:35:27.252Z,41.60
2018-05-25T00:36:32.233Z,41.60
2018-05-25T00:37:36.989Z,41.60
2018-05-25T00:38:41.809Z,41.60
2018-05-25T00:39:46.788Z,41.60
2018-05-25T00:40:51.796Z,41.60
2018-05-25T00:41:56.867Z,41.60
2018-05-25T00:43:02.261Z,41.60
2018-05-25T00:44:07.020Z,41.60
2018-05-25T00:45:11.929Z,41.60
2018-05-25T00:46:16.752Z,41.60
2018-05-25T00:47:21.478Z,41.60
2018-05-25T00:48:26.373Z,41.60
2018-05-25T00:49:31.469Z,41.60
2018-05-25T00:50:36.355Z,41.60
2018-05-25T00:51:41.079Z,41.60
2018-05-25T00:52:46.227Z,41.60
2018-05-25T00:53:50.981Z,41.70
2018-05-25T00:54:56.066Z,41.70
2018-05-25T00:56:01.113Z,41.70
2018-05-25T00:57:06.060Z,41.70
2018-05-25T00:58:10.921Z,41.70
2018-05-25T00:59:15.685Z,41.70
2018-05-25T01:00:20.708Z,41.70
2018-05-25T01:01:25.810Z,41.70
2018-05-25T01:02:30.724Z,41.70
2018-05-25T01:03:35.426Z,41.70
2018-05-25T01:04:40.399Z,41.70
2018-05-25T01:05:45.229Z,41.70
2018-05-25T01:06:50.194Z,41.80
2018-05-25T01:07:55.164Z,41.70
2018-05-25T01:09:00.064Z,41.70
2018-05-25T01:10:04.969Z,41.80
2018-05-25T01:11:09.840Z,41.80
2018-05-25T01:12:14.539Z,41.70
2018-05-25T01:13:19.345Z,41.80
2018-05-25T01:14:24.148Z,41.80
2018-05-25T01:15:29.240Z,41.80
2018-05-25T01:16:33.994Z,41.80
2018-05-25T01:17:38.783Z,42.40
2018-05-25T01:18:43.414Z,41.80
2018-05-25T01:19:48.494Z,41.80
2018-05-25T01:20:53.244Z,41.80
2018-05-25T01:21:58.081Z,41.80
2018-05-25T01:23:03.080Z,41.80
2018-05-25T01:24:07.886Z,41.80
2018-05-25T01:25:12.581Z,41.80
2018-05-25T01:26:17.454Z,41.80
2018-05-25T01:27:22.191Z,41.80
2018-05-25T01:28:27.141Z,41.80
2018-05-25T01:29:32.091Z,41.80
2018-05-25T01:30:37.018Z,41.80
2018-05-25T01:31:41.834Z,41.80
2018-05-25T01:32:46.625Z,41.80
2018-05-25T01:33:51.617Z,42.20
2018-05-25T01:34:56.321Z,41.80
2018-05-25T01:36:01.231Z,41.90
2018-05-25T01:37:06.270Z,41.90
2018-05-25T01:38:11.355Z,41.80
2018-05-25T01:39:16.213Z,41.80
2018-05-25T01:40:21.191Z,41.80
2018-05-25T01:41:26.172Z,41.80
2018-05-25T01:42:31.208Z,41.90
2018-05-25T01:43:36.104Z,41.90
2018-05-25T01:44:40.957Z,41.90
2018-05-25T01:45:45.770Z,41.90
2018-05-25T01:46:50.540Z,41.90
2018-05-25T01:47:55.579Z,41.90
2018-05-25T01:49:00.478Z,41.90
2018-05-25T01:50:05.614Z,41.90
2018-05-25T01:51:10.626Z,41.90
2018-05-25T01:52:15.552Z,41.90
2018-05-25T01:53:20.165Z,41.90
2018-05-25T01:54:24.796Z,41.90
2018-05-25T01:55:29.854Z,41.90
2018-05-25T01:56:34.685Z,41.90
2018-05-25T01:57:39.462Z,41.90
2018-05-25T01:58:44.545Z,41.90
2018-05-25T01:59:49.297Z,41.90
2018-05-25T02:00:54.211Z,41.90
2018-05-25T02:01:59.181Z,42.00
2018-05-25T02:03:04.145Z,41.90
2018-05-25T02:04:08.800Z,42.00
2018-05-25T02:05:13.536Z,42.00
2018-05-25T02:06:18.422Z,42.00
2018-05-25T02:07:23.056Z,42.00
2018-05-25T02:08:28.027Z,41.90
2018-05-25T02:09:32.792Z,42.00
2018-05-25T02:10:37.791Z,42.00
2018-05-25T02:11:42.648Z,42.00
2018-05-25T02:12:47.545Z,42.00
2018-05-25T02:13:52.433Z,42.00
2018-05-25T02:14:57.375Z,42.00
2018-05-25T02:16:02.287Z,42.00
2018-05-25T02:17:07.163Z,42.00
2018-05-25T02:18:12.005Z,42.00
2018-05-25T02:19:16.712Z,42.00
2018-05-25T02:20:21.717Z,42.00
2018-05-25T02:21:26.610Z,42.00
2018-05-25T02:22:31.703Z,42.00
2018-05-25T02:23:36.595Z,42.00
2018-05-25T02:24:41.300Z,42.00
2018-05-25T02:25:46.001Z,42.10
2018-05-25T02:26:50.770Z,42.00
2018-05-25T02:27:55.622Z,42.00
2018-05-25T02:29:00.606Z,42.00
2018-05-25T02:30:05.323Z,42.00
2018-05-25T02:31:10.405Z,42.00
2018-05-25T02:32:15.197Z,42.00
2018-05-25T02:33:19.936Z,42.00
2018-05-25T02:34:24.682Z,42.00
2018-05-25T02:35:29.568Z,42.00
2018-05-25T02:36:34.361Z,42.00
2018-05-25T02:37:39.150Z,42.20
2018-05-25T02:38:44.205Z,42.10
2018-05-25T02:39:49.027Z,42.10
2018-05-25T02:40:53.954Z,42.10
2018-05-25T02:41:58.825Z,42.10
2018-05-25T02:43:03.803Z,42.20
2018-05-25T02:44:08.599Z,42.10
2018-05-25T02:45:13.533Z,42.10
2018-05-25T02:46:18.414Z,42.10
2018-05-25T02:47:23.365Z,42.10
2018-05-25T02:48:28.245Z,42.10
2018-05-25T02:49:33.091Z,42.10
2018-05-25T02:50:37.987Z,42.10
2018-05-25T02:51:43.036Z,42.10
2018-05-25T02:52:47.983Z,42.10
2018-05-25T02:53:52.690Z,42.10
2018-05-25T02:54:57.346Z,42.10
2018-05-25T02:56:02.063Z,42.10
2018-05-25T02:57:06.863Z,42.10
2018-05-25T02:58:11.954Z,42.10
2018-05-25T02:59:16.867Z,42.30
2018-05-25T03:00:21.861Z,42.10
2018-05-25T03:01:26.903Z,42.20
2018-05-25T03:02:31.832Z,42.10
2018-05-25T03:03:37.015Z,42.30
2018-05-25T03:04:41.712Z,42.10
2018-05-25T03:05:46.811Z,42.20
2018-05-25T03:06:51.705Z,42.20
2018-05-25T03:07:56.604Z,42.20
2018-05-25T03:09:01.502Z,42.20
2018-05-25T03:10:06.395Z,42.20
2018-05-25T03:11:11.037Z,42.20
2018-05-25T03:12:15.827Z,42.20
2018-05-25T03:13:20.690Z,42.30
2018-05-25T03:14:25.698Z,42.30
2018-05-25T03:15:30.809Z,42.30
2018-05-25T03:16:35.619Z,42.30
2018-05-25T03:17:40.684Z,42.30
2018-05-25T03:18:45.709Z,42.30
2018-05-25T03:19:50.443Z,42.30
2018-05-25T03:20:55.403Z,42.20
2018-05-25T03:22:00.296Z,42.30
2018-05-25T03:23:05.424Z,42.20
2018-05-25T03:24:10.219Z,42.30
2018-05-25T03:25:15.028Z,42.20
2018-05-25T03:26:19.920Z,42.20
2018-05-25T03:27:24.584Z,42.30
2018-05-25T03:28:29.347Z,42.20
2018-05-25T03:29:34.218Z,42.30
2018-05-25T03:30:39.362Z,42.30
2018-05-25T03:31:44.234Z,42.30
2018-05-25T03:32:49.092Z,42.20
2018-05-25T03:33:53.786Z,42.20
2018-05-25T03:34:58.725Z,42.30
2018-05-25T03:36:03.544Z,42.30
2018-05-25T03:37:08.560Z,42.30
2018-05-25T03:38:13.472Z,42.20
2018-05-25T03:39:18.526Z,42.20
2018-05-25T03:40:23.376Z,42.40
2018-05-25T03:41:28.286Z,42.30
2018-05-25T03:42:33.300Z,42.30
2018-05-25T03:43:38.283Z,42.30
2018-05-25T03:44:43.181Z,42.20
2018-05-25T03:45:48.232Z,42.30
2018-05-25T03:46:53.097Z,42.20
2018-05-25T03:47:57.911Z,42.30
2018-05-25T03:49:02.914Z,42.40
2018-05-25T03:50:07.729Z,42.30
2018-05-25T03:51:12.426Z,42.40
2018-05-25T03:52:17.413Z,42.20
2018-05-25T03:53:22.317Z,42.30
2018-05-25T03:54:27.118Z,42.40
2018-05-25T03:55:31.833Z,42.40
2018-05-25T03:56:36.647Z,42.30
2018-05-25T03:57:41.639Z,42.30
2018-05-25T03:58:46.516Z,42.30
2018-05-25T03:59:51.516Z,42.40
2018-05-25T04:00:56.409Z,42.40
2018-05-25T04:02:01.320Z,42.40
2018-05-25T04:03:06.342Z,42.40
2018-05-25T04:04:11.056Z,42.40
2018-05-25T04:05:15.861Z,42.50
2018-05-25T04:06:20.703Z,42.50
2018-05-25T04:07:25.461Z,42.40
2018-05-25T04:08:30.390Z,42.40
2018-05-25T04:09:35.205Z,42.40
2018-05-25T04:10:40.078Z,42.40
2018-05-25T04:11:44.837Z,42.40
2018-05-25T04:12:49.711Z,42.40
2018-05-25T04:13:54.500Z,42.40
2018-05-25T04:14:59.348Z,42.40
2018-05-25T04:16:04.394Z,42.40
2018-05-25T04:17:09.223Z,42.40
2018-05-25T04:18:14.316Z,42.30
2018-05-25T04:19:19.957Z,42.50
2018-05-25T04:20:24.825Z,42.40
2018-05-25T04:21:29.781Z,42.40
2018-05-25T04:22:34.669Z,42.50
2018-05-25T04:23:39.485Z,42.40
2018-05-25T04:24:44.377Z,42.50
2018-05-25T04:25:49.457Z,42.50
2018-05-25T04:26:54.332Z,42.50
2018-05-25T04:27:59.309Z,42.50
2018-05-25T04:29:04.325Z,42.50
2018-05-25T04:30:09.358Z,42.50
2018-05-25T04:31:14.149Z,42.50
2018-05-25T04:32:19.154Z,42.50
2018-05-25T04:33:23.895Z,42.50
2018-05-25T04:34:28.746Z,42.50
2018-05-25T04:35:33.936Z,42.50
2018-05-25T04:36:38.633Z,42.50
2018-05-25T04:37:43.713Z,42.50
2018-05-25T04:38:48.693Z,42.50
2018-05-25T04:39:53.635Z,42.50
2018-05-25T04:40:58.636Z,42.50
2018-05-25T04:42:03.754Z,42.50
2018-05-25T04:43:08.573Z,42.50
2018-05-25T04:44:13.431Z,42.50
2018-05-25T04:45:18.225Z,42.50
2018-05-25T04:46:23.039Z,42.50
2018-05-25T04:47:28.057Z,42.50
2018-05-25T04:48:33.091Z,42.50
2018-05-25T04:49:38.260Z,42.50
2018-05-25T04:50:43.316Z,42.50
2018-05-25T04:51:48.383Z,42.50
2018-05-25T04:52:53.089Z,42.40
2018-05-25T04:53:57.995Z,42.50
2018-05-25T04:55:02.801Z,42.50
2018-05-25T04:56:07.685Z,42.50
2018-05-25T04:57:12.525Z,42.50
2018-05-25T04:58:17.753Z,42.50
2018-05-25T04:59:22.747Z,42.60
2018-05-25T05:00:27.645Z,42.60
2018-05-25T05:01:32.656Z,42.50
2018-05-25T05:02:37.579Z,42.60
2018-05-25T05:03:42.333Z,42.50
2018-05-25T05:04:47.219Z,42.40
2018-05-25T05:05:52.337Z,42.50
2018-05-25T05:06:57.087Z,42.60
2018-05-25T05:08:02.110Z,42.50
2018-05-25T05:09:07.004Z,42.40
2018-05-25T05:10:12.035Z,42.50
2018-05-25T05:11:16.966Z,42.60
2018-05-25T05:12:21.930Z,42.60
2018-05-25T05:13:26.846Z,42.60
2018-05-25T05:14:31.575Z,42.60
2018-05-25T05:15:36.190Z,42.50
2018-05-25T05:16:41.052Z,42.60
2018-05-25T05:17:45.863Z,42.60
2018-05-25T05:18:50.936Z,42.60
2018-05-25T05:19:56.125Z,42.60
2018-05-25T05:21:01.080Z,42.60
2018-05-25T05:22:06.215Z,42.60
2018-05-25T05:23:10.964Z,42.60
2018-05-25T05:24:15.941Z,42.70
2018-05-25T05:25:20.767Z,42.70
2018-05-25T05:26:25.570Z,42.70
2018-05-25T05:27:30.345Z,42.70
2018-05-25T05:28:35.353Z,42.70
2018-05-25T05:29:40.491Z,42.70
2018-05-25T05:30:45.223Z,42.70
2018-05-25T05:31:50.125Z,42.70
2018-05-25T05:32:55.096Z,42.70
2018-05-25T05:34:00.057Z,42.70
2018-05-25T05:35:04.971Z,42.70
2018-05-25T05:36:10.112Z,42.70
2018-05-25T05:37:15.124Z,42.70
2018-05-25T05:38:20.068Z,42.80
2018-05-25T05:39:25.138Z,42.70
2018-05-25T05:40:29.971Z,42.70
2018-05-25T05:41:34.968Z,42.70
2018-05-25T05:42:39.984Z,42.70
2018-05-25T05:43:44.996Z,43.00
2018-05-25T05:44:50.172Z,43.00
2018-05-25T05:45:54.977Z,43.00
2018-05-25T05:47:00.305Z,43.00
2018-05-25T05:48:05.111Z,43.00
2018-05-25T05:49:10.228Z,43.00
2018-05-25T05:50:15.057Z,42.90
2018-05-25T05:51:20.001Z,43.00
2018-05-25T05:52:25.042Z,42.90
2018-05-25T05:53:29.705Z,42.90
2018-05-25T05:54:34.564Z,43.00
2018-05-25T05:55:39.652Z,43.00
2018-05-25T05:56:44.476Z,43.00
2018-05-25T05:57:49.571Z,43.10
2018-05-25T05:58:54.258Z,43.10
2018-05-25T05:59:59.180Z,43.00
2018-05-25T06:01:04.159Z,43.00
2018-05-25T06:02:09.148Z,43.00
2018-05-25T06:03:13.980Z,43.70
2018-05-25T06:04:19.153Z,43.00
2018-05-25T06:05:24.029Z,43.00
2018-05-25T06:06:29.007Z,43.00
2018-05-25T06:07:33.920Z,43.00
2018-05-25T06:08:38.935Z,43.00
2018-05-25T06:09:44.022Z,43.00
2018-05-25T06:10:48.742Z,43.00
2018-05-25T06:11:53.704Z,43.00
2018-05-25T06:12:58.537Z,43.10
2018-05-25T06:14:03.437Z,43.10
2018-05-25T06:15:08.310Z,43.10
2018-05-25T06:16:13.290Z,43.10
2018-05-25T06:17:18.388Z,43.10
2018-05-25T06:18:23.412Z,43.00
2018-05-25T06:19:28.178Z,43.00
2018-05-25T06:20:33.183Z,43.00
2018-05-25T06:21:37.949Z,43.00
2018-05-25T06:22:42.917Z,43.00
2018-05-25T06:23:47.734Z,43.00
2018-05-25T06:24:52.765Z,43.10
2018-05-25T06:25:57.881Z,43.10
2018-05-25T06:27:02.968Z,43.10
2018-05-25T06:28:07.876Z,43.00
2018-05-25T06:29:13.553Z,43.10
2018-05-25T06:30:19.037Z,43.10
2018-05-25T06:31:24.154Z,43.10
2018-05-25T06:32:29.270Z,43.10
2018-05-25T06:33:35.217Z,43.00
2018-05-25T06:34:40.250Z,43.10
2018-05-25T06:35:45.405Z,43.10
2018-05-25T06:36:50.351Z,43.20
2018-05-25T06:37:55.407Z,43.30
2018-05-25T06:39:00.323Z,43.10
2018-05-25T06:40:05.447Z,43.10
2018-05-25T06:41:10.455Z,43.10
2018-05-25T06:42:15.501Z,43.20
2018-05-25T06:43:20.548Z,43.30
2018-05-25T06:44:25.660Z,43.30
2018-05-25T06:45:30.651Z,43.30
2018-05-25T06:46:35.656Z,43.40
2018-05-25T06:47:40.665Z,43.40
2018-05-25T06:48:45.611Z,43.50
2018-05-25T06:49:50.494Z,43.40
2018-05-25T06:50:55.296Z,43.40
2018-05-25T06:52:00.113Z,43.50
2018-05-25T06:53:05.058Z,43.50
2018-05-25T06:54:10.094Z,43.50
2018-05-25T06:55:15.032Z,43.60
2018-05-25T06:56:20.191Z,43.50
2018-05-25T06:57:25.024Z,43.60
2018-05-25T06:58:29.984Z,43.60
2018-05-25T06:59:35.001Z,43.60
2018-05-25T07:00:39.853Z,43.60
2018-05-25T07:01:44.576Z,43.50
2018-05-25T07:02:49.620Z,43.50
2018-05-25T07:03:54.360Z,43.50
2018-05-25T07:04:59.311Z,43.50
2018-05-25T07:06:04.593Z,43.60
2018-05-25T07:07:09.500Z,43.50
2018-05-25T07:08:14.397Z,43.50
2018-05-25T07:09:19.447Z,43.40
2018-05-25T07:10:24.397Z,43.50
2018-05-25T07:11:29.241Z,43.40
2018-05-25T07:12:34.042Z,43.40
2018-05-25T07:13:39.058Z,43.50
2018-05-25T07:14:44.007Z,43.50
2018-05-25T07:15:49.190Z,43.50
2018-05-25T07:16:53.936Z,43.50
2018-05-25T07:17:58.728Z,43.50
2018-05-25T07:19:03.613Z,43.50
2018-05-25T07:20:08.681Z,43.50
2018-05-25T07:21:13.681Z,43.50
2018-05-25T07:22:18.683Z,43.60
2018-05-25T07:23:23.613Z,44.20
2018-05-25T07:24:28.693Z,43.70
2018-05-25T07:25:33.517Z,43.70
2018-05-25T07:26:38.638Z,44.00
2018-05-25T07:27:43.645Z,44.00
2018-05-25T07:28:48.501Z,44.10
2018-05-25T07:29:53.366Z,44.20
2018-05-25T07:30:58.410Z,44.10
2018-05-25T07:32:03.330Z,43.90
2018-05-25T07:33:08.429Z,44.00
2018-05-25T07:34:13.228Z,43.80
2018-05-25T07:35:18.035Z,43.70
2018-05-25T07:36:23.100Z,43.60
2018-05-25T07:37:27.984Z,43.60
2018-05-25T07:38:32.826Z,43.40
2018-05-25T07:39:37.566Z,43.60
2018-05-25T07:40:42.363Z,43.60
2018-05-25T07:41:47.403Z,43.60
2018-05-25T07:42:52.161Z,43.60
2018-05-25T07:43:57.007Z,43.60
2018-05-25T07:45:02.078Z,43.70
2018-05-25T07:46:06.880Z,43.80
2018-05-25T07:47:11.746Z,43.70
2018-05-25T07:48:16.726Z,43.60
2018-05-25T07:49:21.838Z,43.70
2018-05-25T07:50:26.705Z,43.80
2018-05-25T07:51:31.636Z,43.80
2018-05-25T07:52:36.778Z,43.80
2018-05-25T07:53:41.617Z,43.70
2018-05-25T07:54:46.372Z,43.80
2018-05-25T07:55:51.596Z,44.00
2018-05-25T07:56:56.505Z,43.90
2018-05-25T07:58:01.467Z,43.80
2018-05-25T07:59:06.530Z,44.10
2018-05-25T08:00:11.840Z,44.10
2018-05-25T08:01:16.827Z,44.00
2018-05-25T08:02:21.887Z,43.90
2018-05-25T08:03:26.821Z,44.00
2018-05-25T08:04:32.019Z,43.90
2018-05-25T08:05:36.870Z,43.90
2018-05-25T08:06:42.067Z,44.20
2018-05-25T08:07:46.758Z,44.00
2018-05-25T08:08:51.709Z,43.90
2018-05-25T08:09:56.531Z,44.20
2018-05-25T08:11:01.245Z,44.40
2018-05-25T08:12:05.974Z,44.20
2018-05-25T08:13:10.886Z,44.10
2018-05-25T08:14:15.560Z,44.10
2018-05-25T08:15:20.261Z,44.00
2018-05-25T08:16:25.065Z,44.00
2018-05-25T08:17:29.733Z,44.10
2018-05-25T08:18:34.778Z,44.20
2018-05-25T08:19:39.867Z,44.00
2018-05-25T08:20:44.899Z,44.30
2018-05-25T08:21:49.999Z,44.30
2018-05-25T08:22:55.016Z,44.00
2018-05-25T08:24:00.061Z,44.20
2018-05-25T08:25:04.951Z,44.20
2018-05-25T08:26:10.011Z,44.20
2018-05-25T08:27:15.035Z,44.10
2018-05-25T08:28:19.889Z,44.10
2018-05-25T08:29:24.986Z,44.20
2018-05-25T08:30:29.859Z,44.10
2018-05-25T08:31:34.735Z,44.30
2018-05-25T08:32:39.721Z,44.50
2018-05-25T08:33:44.646Z,44.40
2018-05-25T08:34:49.855Z,44.60
2018-05-25T08:35:54.772Z,44.80
2018-05-25T08:36:59.561Z,44.60
2018-05-25T08:38:04.556Z,44.40
2018-05-25T08:39:09.605Z,44.20
2018-05-25T08:40:14.725Z,44.20
2018-05-25T08:41:19.633Z,44.10
2018-05-25T08:42:24.361Z,44.10
2018-05-25T08:43:29.318Z,44.70
2018-05-25T08:44:34.255Z,44.00
2018-05-25T08:45:39.010Z,43.90
2018-05-25T08:46:43.963Z,43.90
2018-05-25T08:47:49.046Z,43.90
2018-05-25T08:48:53.687Z,43.90
2018-05-25T08:49:58.539Z,43.90
2018-05-25T08:51:03.420Z,43.90
2018-05-25T08:52:08.513Z,43.90
2018-05-25T08:53:13.374Z,43.90
2018-05-25T08:54:18.352Z,43.90
2018-05-25T08:55:23.001Z,43.90
2018-05-25T08:56:27.960Z,43.90
2018-05-25T08:57:32.605Z,44.00
2018-05-25T08:58:37.565Z,44.00
2018-05-25T08:59:42.467Z,44.00
2018-05-25T09:00:47.323Z,44.00
2018-05-25T09:01:52.193Z,44.00
2018-05-25T09:02:56.892Z,44.00
2018-05-25T09:04:01.637Z,44.00
2018-05-25T09:05:06.298Z,44.00
2018-05-25T09:06:11.190Z,43.90
2018-05-25T09:07:16.003Z,44.00
2018-05-25T09:08:20.808Z,44.10
2018-05-25T09:09:25.553Z,44.00
2018-05-25T09:10:30.449Z,44.10
2018-05-25T09:11:35.109Z,44.10
2018-05-25T09:12:40.166Z,44.10
2018-05-25T09:13:44.943Z,44.10
2018-05-25T09:14:49.979Z,44.10
2018-05-25T09:15:54.892Z,44.10
2018-05-25T09:17:00.020Z,44.10
2018-05-25T09:18:05.026Z,44.10
2018-05-25T09:19:09.901Z,44.10
2018-05-25T09:20:14.984Z,44.10
2018-05-25T09:21:19.886Z,44.10
2018-05-25T09:22:24.931Z,44.00
2018-05-25T09:23:29.842Z,44.10
2018-05-25T09:24:34.734Z,44.10
2018-05-25T09:25:39.651Z,44.00
2018-05-25T09:26:44.522Z,44.10
2018-05-25T09:27:49.386Z,44.20
2018-05-25T09:28:54.324Z,44.10
2018-05-25T09:29:59.139Z,44.10
2018-05-25T09:31:03.906Z,44.20
2018-05-25T09:32:08.540Z,44.00
2018-05-25T09:33:13.450Z,44.10
2018-05-25T09:34:18.197Z,44.10
2018-05-25T09:35:22.793Z,44.10
2018-05-25T09:36:27.793Z,44.00
2018-05-25T09:37:32.602Z,44.10
2018-05-25T09:38:37.500Z,44.10
2018-05-25T09:39:42.664Z,44.10
2018-05-25T09:40:47.384Z,44.20
2018-05-25T09:41:52.260Z,44.20
2018-05-25T09:42:56.946Z,44.20
2018-05-25T09:44:01.889Z,44.20
2018-05-25T09:45:06.909Z,44.10
2018-05-25T09:46:11.839Z,44.10
2018-05-25T09:47:16.653Z,44.10
2018-05-25T09:48:21.382Z,44.10
2018-05-25T09:49:26.251Z,44.20
2018-05-25T09:50:31.237Z,44.20
2018-05-25T09:51:36.202Z,44.10
2018-05-25T09:52:41.033Z,44.10
2018-05-25T09:53:45.642Z,44.10
2018-05-25T09:54:50.503Z,44.10
2018-05-25T09:55:55.353Z,44.20
2018-05-25T09:57:00.393Z,44.00
2018-05-25T09:58:05.244Z,44.20
2018-05-25T09:59:10.164Z,44.10
2018-05-25T10:00:14.996Z,44.10
2018-05-25T10:01:20.034Z,44.10
2018-05-25T10:02:24.871Z,44.10
2018-05-25T10:03:29.803Z,44.10
2018-05-25T10:04:34.668Z,44.10
2018-05-25T10:05:39.433Z,44.10
2018-05-25T10:06:44.056Z,44.10
2018-05-25T10:07:48.924Z,44.10
2018-05-25T10:08:53.649Z,44.10
2018-05-25T10:09:58.641Z,44.10
2018-05-25T10:11:03.571Z,44.10
2018-05-25T10:12:08.366Z,44.10
2018-05-25T10:13:13.301Z,44.10
2018-05-25T10:14:19.729Z,44.10
2018-05-25T10:15:24.631Z,44.10
2018-05-25T10:16:29.478Z,44.10
2018-05-25T10:17:34.115Z,44.10
2018-05-25T10:18:39.123Z,44.10
2018-05-25T10:19:43.916Z,44.10
2018-05-25T10:20:48.921Z,44.10
2018-05-25T10:21:54.029Z,44.10
2018-05-25T10:22:58.987Z,44.00
2018-05-25T10:24:03.752Z,44.00
2018-05-25T10:25:08.809Z,44.00
2018-05-25T10:26:14.058Z,44.00
2018-05-25T10:27:18.824Z,43.90
2018-05-25T10:28:23.786Z,43.90
2018-05-25T10:29:28.755Z,43.90
2018-05-25T10:30:33.757Z,43.90
2018-05-25T10:31:38.824Z,43.90
2018-05-25T10:32:43.740Z,44.00
2018-05-25T10:33:48.631Z,44.00
2018-05-25T10:34:53.372Z,44.00
2018-05-25T10:35:58.382Z,44.00
2018-05-25T10:37:03.318Z,44.00
2018-05-25T10:38:08.139Z,44.00
2018-05-25T10:39:13.175Z,44.00
2018-05-25T10:40:18.166Z,44.00
2018-05-25T10:41:23.043Z,44.00
2018-05-25T10:42:27.789Z,43.90
2018-05-25T10:43:32.746Z,43.90
2018-05-25T10:44:37.821Z,43.90
2018-05-25T10:45:42.755Z,43.80
2018-05-25T10:46:47.777Z,44.00
2018-05-25T10:47:52.601Z,43.90
2018-05-25T10:48:57.452Z,43.90
2018-05-25T10:50:02.425Z,43.90
2018-05-25T10:51:07.174Z,43.90
2018-05-25T10:52:12.427Z,43.90
2018-05-25T10:53:17.638Z,43.90
2018-05-25T10:54:23.548Z,44.00
2018-05-25T10:55:30.000Z,44.00
2018-05-25T10:56:34.744Z,43.90
2018-05-25T10:57:39.649Z,43.80
2018-05-25T10:58:44.641Z,43.80
2018-05-25T10:59:49.448Z,43.90
2018-05-25T11:00:54.230Z,43.90
2018-05-25T11:01:59.165Z,44.00
2018-05-25T11:03:04.219Z,43.90
2018-05-25T11:04:09.147Z,44.00
2018-05-25T11:05:14.243Z,43.90
2018-05-25T11:06:19.167Z,43.80
2018-05-25T11:07:24.236Z,44.00
2018-05-25T11:08:28.923Z,43.90
2018-05-25T11:09:33.585Z,43.80
2018-05-25T11:10:38.480Z,43.90
2018-05-25T11:11:43.282Z,43.90
2018-05-25T11:12:48.073Z,43.80
2018-05-25T11:13:52.918Z,43.90
2018-05-25T11:14:57.933Z,43.90
2018-05-25T11:16:02.616Z,43.80
2018-05-25T11:17:07.434Z,43.80
2018-05-25T11:18:12.243Z,43.80
2018-05-25T11:19:17.214Z,43.90
2018-05-25T11:20:22.095Z,43.80
2018-05-25T11:21:27.039Z,43.90
2018-05-25T11:22:32.164Z,43.90
2018-05-25T11:23:37.074Z,43.90
2018-05-25T11:24:42.113Z,43.80
2018-05-25T11:25:46.830Z,43.90
2018-05-25T11:26:51.954Z,43.90
2018-05-25T11:27:56.848Z,43.90
2018-05-25T11:29:02.217Z,43.90
2018-05-25T11:30:07.066Z,43.90
2018-05-25T11:31:12.040Z,43.90
2018-05-25T11:32:17.058Z,43.90
2018-05-25T11:33:21.895Z,43.90
2018-05-25T11:34:26.854Z,43.80
2018-05-25T11:35:31.779Z,43.90
2018-05-25T11:36:36.634Z,43.80
2018-05-25T11:37:41.658Z,43.90
2018-05-25T11:38:46.607Z,43.80
2018-05-25T11:39:51.686Z,44.00
2018-05-25T11:40:56.714Z,43.80
2018-05-25T11:42:01.512Z,43.90
2018-05-25T11:43:06.429Z,43.90
2018-05-25T11:44:11.452Z,43.80
2018-05-25T11:45:16.245Z,43.70
2018-05-25T11:46:21.301Z,43.70
2018-05-25T11:47:26.369Z,43.90
2018-05-25T11:48:31.416Z,43.70
2018-05-25T11:49:36.410Z,43.70
2018-05-25T11:50:42.211Z,43.80
2018-05-25T11:51:47.175Z,43.80
2018-05-25T11:52:52.055Z,43.80
2018-05-25T11:53:56.770Z,43.70
2018-05-25T11:55:01.638Z,43.90
2018-05-25T11:56:06.561Z,43.80
2018-05-25T11:57:11.395Z,43.80
2018-05-25T11:58:16.375Z,43.80
2018-05-25T11:59:21.176Z,43.80
2018-05-25T12:00:26.076Z,43.70
2018-05-25T12:01:30.968Z,43.80
2018-05-25T12:02:35.916Z,43.80
2018-05-25T12:03:40.636Z,43.80
2018-05-25T12:04:45.307Z,43.80
2018-05-25T12:05:50.231Z,43.80
2018-05-25T12:06:54.900Z,43.80
2018-05-25T12:07:59.911Z,43.70
2018-05-25T12:09:04.773Z,43.80
2018-05-25T12:10:09.567Z,43.80
2018-05-25T12:11:14.466Z,43.80
2018-05-25T12:12:19.337Z,43.80
2018-05-25T12:13:24.279Z,43.60
2018-05-25T12:14:29.261Z,43.70
2018-05-25T12:15:33.945Z,43.70
2018-05-25T12:16:39.083Z,43.70
2018-05-25T12:17:43.833Z,43.70
2018-05-25T12:18:48.651Z,43.70
2018-05-25T12:19:53.592Z,43.70
2018-05-25T12:20:59.226Z,43.70
2018-05-25T12:22:04.422Z,43.60
2018-05-25T12:23:09.402Z,43.70
2018-05-25T12:24:14.359Z,43.70
2018-05-25T12:25:19.596Z,43.70
2018-05-25T12:26:24.467Z,43.70
2018-05-25T12:27:29.255Z,43.70
2018-05-25T12:28:34.083Z,43.70
2018-05-25T12:29:39.266Z,43.70
2018-05-25T12:30:44.401Z,43.70
2018-05-25T12:31:49.575Z,43.70
2018-05-25T12:32:54.667Z,43.60
2018-05-25T12:33:59.651Z,43.70
2018-05-25T12:35:04.756Z,43.70
2018-05-25T12:36:09.827Z,43.70
2018-05-25T12:37:14.785Z,43.70
2018-05-25T12:38:19.822Z,43.70
2018-05-25T12:39:24.777Z,43.70
2018-05-25T12:40:29.884Z,43.70
2018-05-25T12:41:34.930Z,43.60
2018-05-25T12:42:39.991Z,43.70
2018-05-25T12:43:44.864Z,43.70
2018-05-25T12:44:49.791Z,43.70
2018-05-25T12:45:54.827Z,43.70
2018-05-25T12:46:59.970Z,43.60
2018-05-25T12:48:04.836Z,43.70
2018-05-25T12:49:10.002Z,43.70
2018-05-25T12:50:15.030Z,43.60
2018-05-25T12:51:20.272Z,43.70
2018-05-25T12:52:25.279Z,43.60
2018-05-25T12:53:30.521Z,43.70
2018-05-25T12:54:35.691Z,43.70
2018-05-25T12:55:41.109Z,43.60
2018-05-25T12:56:46.156Z,43.50
2018-05-25T12:57:51.278Z,43.60
2018-05-25T12:58:56.401Z,43.60
2018-05-25T13:00:01.348Z,43.60
2018-05-25T13:01:06.448Z,43.60
2018-05-25T13:02:11.363Z,43.60
2018-05-25T13:03:16.211Z,43.60
2018-05-25T13:04:21.174Z,43.60
2018-05-25T13:05:26.258Z,43.60
2018-05-25T13:06:31.448Z,43.60
2018-05-25T13:07:36.527Z,43.60
2018-05-25T13:08:41.586Z,43.50
2018-05-25T13:09:46.658Z,43.60
2018-05-25T13:10:51.617Z,43.60
2018-05-25T13:11:56.518Z,43.60
2018-05-25T13:13:01.593Z,43.60
2018-05-25T13:14:06.617Z,43.60
2018-05-25T13:15:11.424Z,43.60
2018-05-25T13:16:16.439Z,43.60
2018-05-25T13:17:21.406Z,43.60
2018-05-25T13:18:26.411Z,43.50
2018-05-25T13:19:31.414Z,43.60
2018-05-25T13:20:36.498Z,43.60
2018-05-25T13:21:42.328Z,43.80
2018-05-25T13:22:47.573Z,43.50
2018-05-25T13:23:52.494Z,43.50
2018-05-25T13:24:59.737Z,43.50
2018-05-25T13:26:04.964Z,43.60
2018-05-25T13:27:10.009Z,43.50
2018-05-25T13:28:14.815Z,43.50
2018-05-25T13:29:19.839Z,43.50
2018-05-25T13:30:25.272Z,43.50
2018-05-25T13:31:30.494Z,44.20
2018-05-25T13:32:35.783Z,43.50
2018-05-25T13:33:40.813Z,43.50
2018-05-25T13:34:46.289Z,43.60
2018-05-25T13:35:51.457Z,43.50
2018-05-25T13:36:56.564Z,43.50
2018-05-25T13:38:01.338Z,43.50
2018-05-25T13:39:06.321Z,43.50
2018-05-25T13:40:11.340Z,43.50
2018-05-25T13:41:16.285Z,43.50
2018-05-25T13:42:21.283Z,43.50
2018-05-25T13:43:26.375Z,43.40
2018-05-25T13:44:31.448Z,43.50
2018-05-25T13:45:36.468Z,43.50
2018-05-25T13:46:41.445Z,43.40
2018-05-25T13:47:46.758Z,43.40
2018-05-25T13:48:51.836Z,43.40
2018-05-25T13:49:56.756Z,43.40
2018-05-25T13:51:01.966Z,43.40
2018-05-25T13:52:07.026Z,43.50
2018-05-25T13:53:12.005Z,43.40
2018-05-25T13:54:17.034Z,43.40
2018-05-25T13:55:22.307Z,43.40
2018-05-25T13:56:27.481Z,43.40